Orsula — V7QE6 — position and weather

sailwx.info

Track history (hours):
 
Tides and Currents Weather Stations Pressure Air Temp Water Temp Dewpoint Dewpoint Depression Visibility Wind Speed Wind Dir Waves Ship Positions

Orsula

Last reported at 2017-Sep-20 17:29 UTC. Time now 2017-Sep-21 05:11 UTC.
Position N 45°29' W 073°31'.

Length 199 m; draft 8.1 m.

Type: Cargo ship. MMSI: 538003343.

Date/timePositionNaut miles runAvg speedWind from/ knotsBaromVisibWave heightAir tempDewpointWater temp
2017-Sep-20 17:29N 45°29' W 073°31'4 4.9
2017-Sep-20 16:45N 45°25' W 073°30'4 2.7
2017-Sep-20 15:18N 45°24' W 073°36'1 4.2
2017-Sep-20 15:00N 45°24' W 073°37'7 7.1
2017-Sep-20 14:00N 45°24' W 073°47'611.9
2017-Sep-20 13:30N 45°20' W 073°54'1 2.5
2017-Sep-20 13:00N 45°19' W 073°55'1 1.5
2017-Sep-20 12:30N 45°18' W 073°56'0 0.5
2017-Sep-20 12:00N 45°18' W 073°56'1 2.3
2017-Sep-20 11:30N 45°17' W 073°56'4 7.9
2017-Sep-20 11:00N 45°14' W 073°60'5 8.6
2017-Sep-20 10:27N 45°13' W 074°07'4 8.1
2017-Sep-20 10:00N 45°14' W 074°12'4 8.0
2017-Sep-20 09:30N 45°13' W 074°17'7 8.8
2017-Sep-20 08:42N 45°08' W 074°25'210.1
2017-Sep-20 08:30N 45°07' W 074°27'  
2017-Sep-14 21:36N 45°07' W 082°59'411.9
2017-Sep-14 21:15N 45°11' W 083°01'312.1
2017-Sep-14 20:59N 45°14' W 083°03'611.9
2017-Sep-14 20:30N 45°20' W 083°05'611.6
2017-Sep-14 20:00N 45°24' W 083°10'611.9
2017-Sep-14 19:30N 45°29' W 083°16'611.8
2017-Sep-14 19:00N 45°33' W 083°22'611.8
2017-Sep-14 18:30N 45°37' W 083°27'611.8
2017-Sep-14 18:00N 45°42' W 083°33'611.6
2017-Sep-14 17:30N 45°46' W 083°39'611.7
2017-Sep-14 17:00N 45°50' W 083°44'611.7
2017-Sep-14 16:30N 45°54' W 083°50'510.1
2017-Sep-14 16:00N 45°59' W 083°53'3 5.4
2017-Sep-14 15:29N 46°02' W 083°52'0 0.0
2017-Sep-14 14:59N 46°02' W 083°52'0 0.1
2017-Sep-14 14:29N 46°02' W 083°52'0 0.1
2017-Sep-14 13:59N 46°02' W 083°52'0 0.1
2017-Sep-14 13:29N 46°02' W 083°52'0 0.1
2017-Sep-14 13:00N 46°02' W 083°52'2 3.9
2017-Sep-14 12:30N 46°02' W 083°55'5 9.2
2017-Sep-14 11:55N 46°05' W 084°01'8 9.0
2017-Sep-14 11:04N 46°11' W 084°07'1 9.3
2017-Sep-14 11:00N 46°12' W 084°08'13 6.7
2017-Sep-14 09:06N 46°24' W 084°14'1 8.0
2017-Sep-14 09:00N 46°25' W 084°15'12 2.6
2017-Sep-14 04:14N 46°27' W 084°32'11 9.1
2017-Sep-14 02:59N 46°35' W 084°43'611.6
2017-Sep-14 02:26N 46°40' W 084°49'511.7
2017-Sep-14 02:00N 46°45' W 084°52'811.0
2017-Sep-14 01:15N 46°50' W 085°02'311.4
2017-Sep-14 01:00N 46°51' W 085°05'27011.2
2017-Sep-13 00:52N 46°55' W 091°40'411.5
2017-Sep-13 00:30N 46°54' W 091°46'611.5
2017-Sep-13 00:00N 46°51' W 091°53'611.4
2017-Sep-12 23:30N 46°49' W 092°01'4 8.6
2017-Sep-12 23:00N 46°46' W 092°06'2 3.2
2017-Sep-12 22:30N 46°45' W 092°06'0 0.7
2017-Sep-12 22:00N 46°45' W 092°06'0 0.0
2017-Sep-12 21:30N 46°45' W 092°06'0 0.0
2017-Sep-12 21:00N 46°45' W 092°06'0 0.0
2017-Sep-12 20:30N 46°45' W 092°06'0 0.0
2017-Sep-12 19:51N 46°45' W 092°06'0 0.0
2017-Sep-12 19:18N 46°45' W 092°06'0 0.0
2017-Sep-12 18:51N 46°45' W 092°06'0 0.0
2017-Sep-12 18:18N 46°45' W 092°06'0 0.0
2017-Sep-12 17:54N 46°45' W 092°06'0 0.0
2017-Sep-12 17:09N 46°45' W 092°06'0 0.0
2017-Sep-12 16:54N 46°45' W 092°06'0 0.0
2017-Sep-12 16:24N 46°45' W 092°06'0 0.0
2017-Sep-12 15:54N 46°45' W 092°06'0 0.0
2017-Sep-12 15:24N 46°45' W 092°06'0 0.0
2017-Sep-12 14:54N 46°45' W 092°06'0 0.0
2017-Sep-11 23:32N 46°45' W 092°06'0 0.0
2017-Sep-11 23:17N 46°45' W 092°06'0 0.0
2017-Sep-11 22:47N 46°45' W 092°06'0 0.0
2017-Sep-11 22:29N 46°45' W 092°06'0 0.0
2017-Sep-11 21:59N 46°45' W 092°06'0 0.0
2017-Sep-11 21:29N 46°45' W 092°06'0 0.0
2017-Sep-11 20:59N 46°45' W 092°06'0 0.0
2017-Sep-11 20:17N 46°45' W 092°06'0 0.0
2017-Sep-11 19:47N 46°45' W 092°06'0 0.0
2017-Sep-11 19:20N 46°45' W 092°06'0 0.0
2017-Sep-11 18:50N 46°45' W 092°06'0 0.0
2017-Sep-11 18:20N 46°45' W 092°06'0 0.0
2017-Sep-11 17:53N 46°45' W 092°06'0 0.0
2017-Sep-11 17:23N 46°45' W 092°06'0 0.0
2017-Sep-11 16:53N 46°45' W 092°06'0 0.0
2017-Sep-11 16:23N 46°45' W 092°06'0 0.0
2017-Sep-11 15:53N 46°45' W 092°06'0 0.0
2017-Sep-11 15:23N 46°45' W 092°06'0 0.0
2017-Sep-11 14:53N 46°45' W 092°06'0 0.0
2017-Sep-11 14:23N 46°45' W 092°06'  
Track history (hours):
 
Tides and Currents Weather Stations Pressure Air Temp Water Temp Dewpoint Dewpoint Depression Visibility Wind Speed Wind Dir Waves Ship Positions

Orsula

Last reported at 2017-Sep-20 17:29 UTC. Time now 2017-Sep-21 05:11 UTC.
Position N 45°29' W 073°31'.

Length 199 m; draft 8.1 m.

Type: Cargo ship. MMSI: 538003343.

Date/timePositionNaut miles runAvg speedWind from/ knotsBaromVisibWave heightAir tempDewpointWater temp
2017-Sep-20 17:29N 45°29' W 073°31'4 4.9
2017-Sep-20 16:45N 45°25' W 073°30'4 2.7
2017-Sep-20 15:18N 45°24' W 073°36'1 4.2
2017-Sep-20 15:00N 45°24' W 073°37'7 7.1
2017-Sep-20 14:00N 45°24' W 073°47'611.9
2017-Sep-20 13:30N 45°20' W 073°54'1 2.5
2017-Sep-20 13:00N 45°19' W 073°55'1 1.5
2017-Sep-20 12:30N 45°18' W 073°56'0 0.5
2017-Sep-20 12:00N 45°18' W 073°56'1 2.3
2017-Sep-20 11:30N 45°17' W 073°56'4 7.9
2017-Sep-20 11:00N 45°14' W 073°60'5 8.6
2017-Sep-20 10:27N 45°13' W 074°07'4 8.1
2017-Sep-20 10:00N 45°14' W 074°12'4 8.0
2017-Sep-20 09:30N 45°13' W 074°17'7 8.8
2017-Sep-20 08:42N 45°08' W 074°25'210.1
2017-Sep-20 08:30N 45°07' W 074°27'  
2017-Sep-14 21:36N 45°07' W 082°59'411.9
2017-Sep-14 21:15N 45°11' W 083°01'312.1
2017-Sep-14 20:59N 45°14' W 083°03'611.9
2017-Sep-14 20:30N 45°20' W 083°05'611.6
2017-Sep-14 20:00N 45°24' W 083°10'611.9
2017-Sep-14 19:30N 45°29' W 083°16'611.8
2017-Sep-14 19:00N 45°33' W 083°22'611.8
2017-Sep-14 18:30N 45°37' W 083°27'611.8
2017-Sep-14 18:00N 45°42' W 083°33'611.6
2017-Sep-14 17:30N 45°46' W 083°39'611.7
2017-Sep-14 17:00N 45°50' W 083°44'611.7
2017-Sep-14 16:30N 45°54' W 083°50'510.1
2017-Sep-14 16:00N 45°59' W 083°53'3 5.4
2017-Sep-14 15:29N 46°02' W 083°52'0 0.0
2017-Sep-14 14:59N 46°02' W 083°52'0 0.1
2017-Sep-14 14:29N 46°02' W 083°52'0 0.1
2017-Sep-14 13:59N 46°02' W 083°52'0 0.1
2017-Sep-14 13:29N 46°02' W 083°52'0 0.1
2017-Sep-14 13:00N 46°02' W 083°52'2 3.9
2017-Sep-14 12:30N 46°02' W 083°55'5 9.2
2017-Sep-14 11:55N 46°05' W 084°01'8 9.0
2017-Sep-14 11:04N 46°11' W 084°07'1 9.3
2017-Sep-14 11:00N 46°12' W 084°08'13 6.7
2017-Sep-14 09:06N 46°24' W 084°14'1 8.0
2017-Sep-14 09:00N 46°25' W 084°15'12 2.6
2017-Sep-14 04:14N 46°27' W 084°32'11 9.1
2017-Sep-14 02:59N 46°35' W 084°43'611.6
2017-Sep-14 02:26N 46°40' W 084°49'511.7
2017-Sep-14 02:00N 46°45' W 084°52'811.0
2017-Sep-14 01:15N 46°50' W 085°02'311.4
2017-Sep-14 01:00N 46°51' W 085°05'27011.2
2017-Sep-13 00:52N 46°55' W 091°40'411.5
2017-Sep-13 00:30N 46°54' W 091°46'611.5
2017-Sep-13 00:00N 46°51' W 091°53'611.4
2017-Sep-12 23:30N 46°49' W 092°01'4 8.6
2017-Sep-12 23:00N 46°46' W 092°06'2 3.2
2017-Sep-12 22:30N 46°45' W 092°06'0 0.7
2017-Sep-12 22:00N 46°45' W 092°06'0 0.0
2017-Sep-12 21:30N 46°45' W 092°06'0 0.0
2017-Sep-12 21:00N 46°45' W 092°06'0 0.0
2017-Sep-12 20:30N 46°45' W 092°06'0 0.0
2017-Sep-12 19:51N 46°45' W 092°06'0 0.0
2017-Sep-12 19:18N 46°45' W 092°06'0 0.0
2017-Sep-12 18:51N 46°45' W 092°06'0 0.0
2017-Sep-12 18:18N 46°45' W 092°06'0 0.0
2017-Sep-12 17:54N 46°45' W 092°06'0 0.0
2017-Sep-12 17:09N 46°45' W 092°06'0 0.0
2017-Sep-12 16:54N 46°45' W 092°06'0 0.0
2017-Sep-12 16:24N 46°45' W 092°06'0 0.0
2017-Sep-12 15:54N 46°45' W 092°06'0 0.0
2017-Sep-12 15:24N 46°45' W 092°06'0 0.0
2017-Sep-12 14:54N 46°45' W 092°06'0 0.0
2017-Sep-11 23:32N 46°45' W 092°06'0 0.0
2017-Sep-11 23:17N 46°45' W 092°06'0 0.0
2017-Sep-11 22:47N 46°45' W 092°06'0 0.0
2017-Sep-11 22:29N 46°45' W 092°06'0 0.0
2017-Sep-11 21:59N 46°45' W 092°06'0 0.0
2017-Sep-11 21:29N 46°45' W 092°06'0 0.0
2017-Sep-11 20:59N 46°45' W 092°06'0 0.0
2017-Sep-11 20:17N 46°45' W 092°06'0 0.0
2017-Sep-11 19:47N 46°45' W 092°06'0 0.0
2017-Sep-11 19:20N 46°45' W 092°06'0 0.0
2017-Sep-11 18:50N 46°45' W 092°06'0 0.0
2017-Sep-11 18:20N 46°45' W 092°06'0 0.0
2017-Sep-11 17:53N 46°45' W 092°06'0 0.0
2017-Sep-11 17:23N 46°45' W 092°06'0 0.0
2017-Sep-11 16:53N 46°45' W 092°06'0 0.0
2017-Sep-11 16:23N 46°45' W 092°06'0 0.0
2017-Sep-11 15:53N 46°45' W 092°06'0 0.0
2017-Sep-11 15:23N 46°45' W 092°06'0 0.0
2017-Sep-11 14:53N 46°45' W 092°06'0 0.0
2017-Sep-11 14:23N 46°45' W 092°06'  

Dump ship's entire track history